sensor_id;sensor_type;location;lat;lon;timestamp;pressure;altitude;pressure_sealevel;temperature;humidity
36254;BME280;22291;52.250;21.228;2022-08-02T00:01:20;100187.09;;;19.11;72.38
36254;BME280;22291;52.250;21.228;2022-08-02T00:03:46;100187.64;;;19.07;72.58
36254;BME280;22291;52.250;21.228;2022-08-02T00:06:12;100190.33;;;19.03;72.70
36254;BME280;22291;52.250;21.228;2022-08-02T00:08:38;100188.09;;;18.99;72.73
36254;BME280;22291;52.250;21.228;2022-08-02T00:11:04;100181.98;;;18.96;72.89
36254;BME280;22291;52.250;21.228;2022-08-02T00:13:31;100185.45;;;18.93;73.02
36254;BME280;22291;52.250;21.228;2022-08-02T00:15:57;100191.10;;;18.91;73.10
36254;BME280;22291;52.250;21.228;2022-08-02T00:18:23;100189.87;;;18.88;73.29
36254;BME280;22291;52.250;21.228;2022-08-02T00:20:50;100187.53;;;18.87;73.71
36254;BME280;22291;52.250;21.228;2022-08-02T00:23:16;100188.81;;;18.83;73.84
36254;BME280;22291;52.250;21.228;2022-08-02T00:28:11;100189.32;;;18.79;73.87
36254;BME280;22291;52.250;21.228;2022-08-02T00:30:37;100185.94;;;18.76;74.01
36254;BME280;22291;52.250;21.228;2022-08-02T00:33:04;100198.08;;;18.75;74.38
36254;BME280;22291;52.250;21.228;2022-08-02T00:35:31;100190.58;;;18.72;74.52
36254;BME280;22291;52.250;21.228;2022-08-02T00:37:57;100185.61;;;18.67;74.42
36254;BME280;22291;52.250;21.228;2022-08-02T00:40:24;100190.08;;;18.66;74.41
36254;BME280;22291;52.250;21.228;2022-08-02T00:43:02;100197.73;;;18.66;74.73
36254;BME280;22291;52.250;21.228;2022-08-02T00:45:37;100201.03;;;18.66;74.90
36254;BME280;22291;52.250;21.228;2022-08-02T00:48:05;100204.59;;;18.66;75.21
36254;BME280;22291;52.250;21.228;2022-08-02T00:50:34;100206.32;;;18.65;75.36
36254;BME280;22291;52.250;21.228;2022-08-02T00:53:01;100204.73;;;18.64;75.55
36254;BME280;22291;52.250;21.228;2022-08-02T00:55:28;100205.45;;;18.61;75.57
36254;BME280;22291;52.250;21.228;2022-08-02T00:57:55;100199.55;;;18.59;75.62
36254;BME280;22291;52.250;21.228;2022-08-02T01:00:21;100204.25;;;18.58;75.96
36254;BME280;22291;52.250;21.228;2022-08-02T01:02:48;100198.35;;;18.56;75.80
36254;BME280;22291;52.250;21.228;2022-08-02T01:05:15;100203.19;;;18.53;75.68
36254;BME280;22291;52.250;21.228;2022-08-02T01:07:42;100204.33;;;18.52;75.86
36254;BME280;22291;52.250;21.228;2022-08-02T01:10:09;100201.95;;;18.51;76.09
36254;BME280;22291;52.250;21.228;2022-08-02T01:12:35;100205.80;;;18.46;76.24
36254;BME280;22291;52.250;21.228;2022-08-02T01:15:07;100200.05;;;18.41;76.41
36254;BME280;22291;52.250;21.228;2022-08-02T01:17:59;100199.76;;;18.37;76.56
36254;BME280;22291;52.250;21.228;2022-08-02T01:24:34;100206.91;;;18.32;77.08
36254;BME280;22291;52.250;21.228;2022-08-02T01:27:17;100210.16;;;18.27;77.45
36254;BME280;22291;52.250;21.228;2022-08-02T01:29:52;100213.03;;;18.25;77.61
36254;BME280;22291;52.250;21.228;2022-08-02T01:32:22;100208.15;;;18.24;77.60
36254;BME280;22291;52.250;21.228;2022-08-02T01:34:57;100209.74;;;18.25;77.65
36254;BME280;22291;52.250;21.228;2022-08-02T01:38:03;100213.84;;;18.25;77.69
36254;BME280;22291;52.250;21.228;2022-08-02T01:40:24;100216.59;;;18.25;77.65
36254;BME280;22291;52.250;21.228;2022-08-02T01:42:54;100214.98;;;18.24;77.63
36254;BME280;22291;52.250;21.228;2022-08-02T01:45:32;100222.42;;;18.24;77.64
36254;BME280;22291;52.250;21.228;2022-08-02T01:47:59;100219.63;;;18.20;77.40
36254;BME280;22291;52.250;21.228;2022-08-02T01:58:45;100225.59;;;18.06;77.88
36254;BME280;22291;52.250;21.228;2022-08-02T02:01:14;100219.63;;;18.01;78.05
36254;BME280;22291;52.250;21.228;2022-08-02T02:03:41;100220.56;;;17.99;78.03
36254;BME280;22291;52.250;21.228;2022-08-02T02:06:10;100223.30;;;17.99;78.20
36254;BME280;22291;52.250;21.228;2022-08-02T02:08:39;100219.78;;;17.98;78.42
36254;BME280;22291;52.250;21.228;2022-08-02T02:11:06;100221.15;;;17.98;78.76
36254;BME280;22291;52.250;21.228;2022-08-02T02:13:33;100220.70;;;17.96;78.97
36254;BME280;22291;52.250;21.228;2022-08-02T02:16:04;100221.80;;;17.91;78.68
36254;BME280;22291;52.250;21.228;2022-08-02T02:18:38;100217.05;;;17.88;78.70
36254;BME280;22291;52.250;21.228;2022-08-02T02:21:05;100215.25;;;17.86;78.83
36254;BME280;22291;52.250;21.228;2022-08-02T02:23:32;100216.29;;;17.82;79.09
36254;BME280;22291;52.250;21.228;2022-08-02T02:26:00;100217.43;;;17.81;78.97
36254;BME280;22291;52.250;21.228;2022-08-02T02:28:30;100223.48;;;17.80;79.06
36254;BME280;22291;52.250;21.228;2022-08-02T02:31:09;100223.84;;;17.79;79.18
36254;BME280;22291;52.250;21.228;2022-08-02T02:33:46;100221.69;;;17.78;79.23
36254;BME280;22291;52.250;21.228;2022-08-02T02:36:20;100222.83;;;17.77;79.37
36254;BME280;22291;52.250;21.228;2022-08-02T02:38:47;100224.36;;;17.74;79.14
36254;BME280;22291;52.250;21.228;2022-08-02T02:41:16;100228.23;;;17.73;79.37
36254;BME280;22291;52.250;21.228;2022-08-02T02:43:45;100221.32;;;17.70;79.74
36254;BME280;22291;52.250;21.228;2022-08-02T02:46:12;100222.62;;;17.66;79.72
36254;BME280;22291;52.250;21.228;2022-08-02T02:48:41;100226.42;;;17.62;79.78
36254;BME280;22291;52.250;21.228;2022-08-02T02:51:09;100230.09;;;17.60;79.98
36254;BME280;22291;52.250;21.228;2022-08-02T02:53:40;100235.33;;;17.59;80.24
36254;BME280;22291;52.250;21.228;2022-08-02T02:56:08;100235.91;;;17.58;80.12
36254;BME280;22291;52.250;21.228;2022-08-02T02:58:34;100236.14;;;17.59;80.44
36254;BME280;22291;52.250;21.228;2022-08-02T03:01:03;100242.55;;;17.57;80.60
36254;BME280;22291;52.250;21.228;2022-08-02T03:03:48;100240.73;;;17.55;80.80
36254;BME280;22291;52.250;21.228;2022-08-02T03:06:15;100244.05;;;17.54;80.91
36254;BME280;22291;52.250;21.228;2022-08-02T03:08:42;100244.05;;;17.54;81.16
36254;BME280;22291;52.250;21.228;2022-08-02T03:11:10;100237.92;;;17.51;81.18
36254;BME280;22291;52.250;21.228;2022-08-02T03:13:38;100240.81;;;17.49;81.09
36254;BME280;22291;52.250;21.228;2022-08-02T03:16:05;100246.98;;;17.46;81.24
36254;BME280;22291;52.250;21.228;2022-08-02T03:18:35;100252.58;;;17.43;81.45
36254;BME280;22291;52.250;21.228;2022-08-02T03:21:05;100248.62;;;17.41;81.31
36254;BME280;22291;52.250;21.228;2022-08-02T03:23:38;100245.46;;;17.39;81.59
36254;BME280;22291;52.250;21.228;2022-08-02T03:26:07;100246.02;;;17.38;81.72
36254;BME280;22291;52.250;21.228;2022-08-02T03:28:37;100238.55;;;17.35;81.76
36254;BME280;22291;52.250;21.228;2022-08-02T03:31:04;100239.69;;;17.34;81.89
36254;BME280;22291;52.250;21.228;2022-08-02T03:33:32;100237.89;;;17.32;81.83
36254;BME280;22291;52.250;21.228;2022-08-02T03:36:01;100238.67;;;17.32;82.10
36254;BME280;22291;52.250;21.228;2022-08-02T03:38:31;100243.36;;;17.32;82.12
36254;BME280;22291;52.250;21.228;2022-08-02T03:41:00;100242.55;;;17.31;82.19
36254;BME280;22291;52.250;21.228;2022-08-02T03:43:28;100236.72;;;17.33;82.19
36254;BME280;22291;52.250;21.228;2022-08-02T03:45:56;100243.20;;;17.34;82.42
36254;BME280;22291;52.250;21.228;2022-08-02T03:48:25;100249.48;;;17.35;82.37
36254;BME280;22291;52.250;21.228;2022-08-02T03:50:53;100244.02;;;17.35;82.44
36254;BME280;22291;52.250;21.228;2022-08-02T03:53:21;100247.73;;;17.36;82.64
36254;BME280;22291;52.250;21.228;2022-08-02T03:55:48;100249.91;;;17.37;82.68
36254;BME280;22291;52.250;21.228;2022-08-02T03:58:20;100251.83;;;17.36;82.60
36254;BME280;22291;52.250;21.228;2022-08-02T04:00:48;100253.44;;;17.38;82.70
36254;BME280;22291;52.250;21.228;2022-08-02T04:03:15;100253.31;;;17.40;82.83
36254;BME280;22291;52.250;21.228;2022-08-02T04:05:41;100259.41;;;17.43;82.91
36254;BME280;22291;52.250;21.228;2022-08-02T04:08:07;100262.14;;;17.43;82.82
36254;BME280;22291;52.250;21.228;2022-08-02T04:10:33;100266.33;;;17.47;82.88
36254;BME280;22291;52.250;21.228;2022-08-02T04:13:19;100266.98;;;17.50;83.06
36254;BME280;22291;52.250;21.228;2022-08-02T04:15:49;100267.41;;;17.52;83.07
36254;BME280;22291;52.250;21.228;2022-08-02T04:18:19;100266.35;;;17.57;83.00
36254;BME280;22291;52.250;21.228;2022-08-02T04:20:48;100272.71;;;17.61;83.06
36254;BME280;22291;52.250;21.228;2022-08-02T04:23:16;100275.09;;;17.62;82.98
36254;BME280;22291;52.250;21.228;2022-08-02T04:25:44;100280.28;;;17.67;83.08
36254;BME280;22291;52.250;21.228;2022-08-02T04:28:12;100274.07;;;17.70;83.16
36254;BME280;22291;52.250;21.228;2022-08-02T04:30:40;100278.48;;;17.75;83.36
36254;BME280;22291;52.250;21.228;2022-08-02T04:33:07;100288.00;;;17.81;83.29
36254;BME280;22291;52.250;21.228;2022-08-02T04:35:34;100295.38;;;17.87;83.20
36254;BME280;22291;52.250;21.228;2022-08-02T04:38:01;100297.24;;;17.92;83.32
36254;BME280;22291;52.250;21.228;2022-08-02T04:40:27;100296.41;;;17.98;83.09
36254;BME280;22291;52.250;21.228;2022-08-02T04:42:53;100298.27;;;18.04;83.05
36254;BME280;22291;52.250;21.228;2022-08-02T04:45:20;100304.83;;;18.09;82.72
36254;BME280;22291;52.250;21.228;2022-08-02T04:47:47;100308.29;;;18.16;82.29
36254;BME280;22291;52.250;21.228;2022-08-02T04:50:13;100309.37;;;18.21;82.08
36254;BME280;22291;52.250;21.228;2022-08-02T04:52:39;100313.61;;;18.28;82.29
36254;BME280;22291;52.250;21.228;2022-08-02T04:55:06;100311.59;;;18.35;82.01
36254;BME280;22291;52.250;21.228;2022-08-02T04:57:33;100309.22;;;18.43;82.03
36254;BME280;22291;52.250;21.228;2022-08-02T05:00:17;100317.92;;;18.48;81.48
36254;BME280;22291;52.250;21.228;2022-08-02T05:02:44;100319.42;;;18.56;81.45
36254;BME280;22291;52.250;21.228;2022-08-02T05:05:10;100323.33;;;18.64;81.51
36254;BME280;22291;52.250;21.228;2022-08-02T05:07:38;100327.77;;;18.73;81.48
36254;BME280;22291;52.250;21.228;2022-08-02T05:10:04;100325.17;;;18.80;81.04
36254;BME280;22291;52.250;21.228;2022-08-02T05:12:31;100325.69;;;18.85;80.60
36254;BME280;22291;52.250;21.228;2022-08-02T05:14:57;100327.53;;;18.91;80.11
36254;BME280;22291;52.250;21.228;2022-08-02T05:17:23;100330.20;;;18.97;80.14
36254;BME280;22291;52.250;21.228;2022-08-02T05:19:49;100332.05;;;19.03;79.87
36254;BME280;22291;52.250;21.228;2022-08-02T05:22:15;100331.97;;;19.09;79.51
36254;BME280;22291;52.250;21.228;2022-08-02T05:24:42;100333.62;;;19.14;78.76
36254;BME280;22291;52.250;21.228;2022-08-02T05:27:08;100334.88;;;19.20;78.11
36254;BME280;22291;52.250;21.228;2022-08-02T05:29:33;100344.45;;;19.30;78.18
36254;BME280;22291;52.250;21.228;2022-08-02T05:31:59;100347.52;;;19.38;77.36
36254;BME280;22291;52.250;21.228;2022-08-02T05:34:26;100348.64;;;19.47;77.19
36254;BME280;22291;52.250;21.228;2022-08-02T05:36:52;100352.32;;;19.58;76.84
36254;BME280;22291;52.250;21.228;2022-08-02T05:39:18;100357.03;;;19.71;76.39
36254;BME280;22291;52.250;21.228;2022-08-02T05:41:48;100360.00;;;19.85;76.43
36254;BME280;22291;52.250;21.228;2022-08-02T05:44:16;100362.00;;;20.02;75.92
36254;BME280;22291;52.250;21.228;2022-08-02T05:46:42;100363.22;;;20.18;74.89
36254;BME280;22291;52.250;21.228;2022-08-02T05:49:08;100369.28;;;20.34;74.78
36254;BME280;22291;52.250;21.228;2022-08-02T05:51:42;100371.08;;;20.53;74.53
36254;BME280;22291;52.250;21.228;2022-08-02T05:54:30;100374.07;;;20.71;73.02
36254;BME280;22291;52.250;21.228;2022-08-02T05:57:40;100377.58;;;20.88;72.42
36254;BME280;22291;52.250;21.228;2022-08-02T06:00:20;100373.46;;;21.09;71.29
36254;BME280;22291;52.250;21.228;2022-08-02T06:02:52;100369.72;;;21.32;70.52
36254;BME280;22291;52.250;21.228;2022-08-02T06:05:28;100378.76;;;21.49;69.68
36254;BME280;22291;52.250;21.228;2022-08-02T06:07:58;100376.34;;;21.68;69.35
36254;BME280;22291;52.250;21.228;2022-08-02T06:10:27;100376.84;;;21.85;68.31
36254;BME280;22291;52.250;21.228;2022-08-02T06:15:37;100372.28;;;22.14;66.64
36254;BME280;22291;52.250;21.228;2022-08-02T06:18:06;100379.70;;;22.34;66.46
36254;BME280;22291;52.250;21.228;2022-08-02T06:20:35;100383.27;;;22.49;64.18
36254;BME280;22291;52.250;21.228;2022-08-02T06:23:04;100382.95;;;22.61;62.64
36254;BME280;22291;52.250;21.228;2022-08-02T06:25:36;100375.30;;;22.71;63.03
36254;BME280;22291;52.250;21.228;2022-08-02T06:28:04;100382.60;;;22.88;62.73
36254;BME280;22291;52.250;21.228;2022-08-02T06:30:32;100378.55;;;23.09;62.45
36254;BME280;22291;52.250;21.228;2022-08-02T06:32:59;100381.89;;;23.30;61.46
36254;BME280;22291;52.250;21.228;2022-08-02T06:36:15;100382.30;;;23.47;60.12
36254;BME280;22291;52.250;21.228;2022-08-02T06:38:00;100382.87;;;23.61;60.21
36254;BME280;22291;52.250;21.228;2022-08-02T06:40:47;100381.66;;;23.80;59.23
36254;BME280;22291;52.250;21.228;2022-08-02T06:43:37;100387.38;;;23.95;56.54
36254;BME280;22291;52.250;21.228;2022-08-02T06:46:03;100386.14;;;24.14;56.06
36254;BME280;22291;52.250;21.228;2022-08-02T06:48:30;100391.83;;;24.33;56.17
36254;BME280;22291;52.250;21.228;2022-08-02T06:50:58;100392.34;;;24.54;55.26
36254;BME280;22291;52.250;21.228;2022-08-02T06:53:24;100389.87;;;24.74;55.78
36254;BME280;22291;52.250;21.228;2022-08-02T06:55:51;100391.49;;;25.02;54.68
36254;BME280;22291;52.250;21.228;2022-08-02T06:58:17;100394.09;;;25.23;53.88
36254;BME280;22291;52.250;21.228;2022-08-02T07:00:43;100396.11;;;25.49;52.95
36254;BME280;22291;52.250;21.228;2022-08-02T07:03:09;100398.50;;;25.69;52.74
36254;BME280;22291;52.250;21.228;2022-08-02T07:05:36;100405.34;;;25.99;52.32
36254;BME280;22291;52.250;21.228;2022-08-02T07:08:03;100402.20;;;26.32;52.10
36254;BME280;22291;52.250;21.228;2022-08-02T07:10:30;100397.86;;;26.65;50.66
36254;BME280;22291;52.250;21.228;2022-08-02T07:12:56;100409.20;;;26.90;50.24
36254;BME280;22291;52.250;21.228;2022-08-02T07:15:22;100396.09;;;27.17;49.44
36254;BME280;22291;52.250;21.228;2022-08-02T07:17:48;100400.02;;;27.47;49.05
36254;BME280;22291;52.250;21.228;2022-08-02T07:20:15;100400.72;;;27.75;48.74
36254;BME280;22291;52.250;21.228;2022-08-02T07:22:41;100395.89;;;28.03;47.82
36254;BME280;22291;52.250;21.228;2022-08-02T07:25:08;100395.29;;;28.31;47.58
36254;BME280;22291;52.250;21.228;2022-08-02T07:27:35;100394.05;;;28.64;47.32
36254;BME280;22291;52.250;21.228;2022-08-02T07:30:03;100401.14;;;28.94;46.54
36254;BME280;22291;52.250;21.228;2022-08-02T07:32:31;100393.20;;;29.20;45.69
36254;BME280;22291;52.250;21.228;2022-08-02T07:34:58;100398.65;;;29.49;44.75
36254;BME280;22291;52.250;21.228;2022-08-02T07:37:28;100396.19;;;29.67;43.82
36254;BME280;22291;52.250;21.228;2022-08-02T07:39:56;100402.08;;;29.94;43.97
36254;BME280;22291;52.250;21.228;2022-08-02T07:42:22;100396.15;;;30.21;43.01
36254;BME280;22291;52.250;21.228;2022-08-02T07:44:50;100399.23;;;30.40;41.52
36254;BME280;22291;52.250;21.228;2022-08-02T07:47:17;100395.61;;;30.47;41.11
36254;BME280;22291;52.250;21.228;2022-08-02T07:49:43;100400.70;;;30.57;40.82
36254;BME280;22291;52.250;21.228;2022-08-02T07:52:10;100397.60;;;30.81;41.13
36254;BME280;22291;52.250;21.228;2022-08-02T07:54:36;100390.08;;;31.12;40.92
36254;BME280;22291;52.250;21.228;2022-08-02T07:57:03;100391.75;;;31.39;40.34
36254;BME280;22291;52.250;21.228;2022-08-02T07:59:29;100394.80;;;31.62;39.92
36254;BME280;22291;52.250;21.228;2022-08-02T08:01:55;100394.02;;;31.79;38.73
36254;BME280;22291;52.250;21.228;2022-08-02T08:04:21;100394.61;;;31.96;39.11
36254;BME280;22291;52.250;21.228;2022-08-02T08:06:48;100393.23;;;32.18;37.93
36254;BME280;22291;52.250;21.228;2022-08-02T08:52:31;100406.45;;;34.65;33.88
36254;BME280;22291;52.250;21.228;2022-08-02T08:55:09;100408.78;;;34.71;34.46
36254;BME280;22291;52.250;21.228;2022-08-02T08:57:39;100408.78;;;34.71;34.46
36254;BME280;22291;52.250;21.228;2022-08-02T09:00:08;100412.03;;;34.78;33.77
36254;BME280;22291;52.250;21.228;2022-08-02T09:02:39;100408.47;;;34.73;33.68
36254;BME280;22291;52.250;21.228;2022-08-02T09:05:12;100417.30;;;34.90;33.63
36254;BME280;22291;52.250;21.228;2022-08-02T09:07:40;100407.45;;;34.95;34.54
36254;BME280;22291;52.250;21.228;2022-08-02T09:10:31;100406.16;;;35.01;33.47
36254;BME280;22291;52.250;21.228;2022-08-02T09:13:23;100402.68;;;35.10;33.90
36254;BME280;22291;52.250;21.228;2022-08-02T09:15:55;100402.14;;;35.26;33.76
36254;BME280;22291;52.250;21.228;2022-08-02T09:18:32;100411.87;;;35.44;33.77
36254;BME280;22291;52.250;21.228;2022-08-02T09:21:05;100406.14;;;35.58;33.04
36254;BME280;22291;52.250;21.228;2022-08-02T09:23:41;100405.73;;;35.70;32.90
36254;BME280;22291;52.250;21.228;2022-08-02T09:26:15;100408.61;;;35.85;32.04
36254;BME280;22291;52.250;21.228;2022-08-02T09:28:45;100409.25;;;35.99;32.27
36254;BME280;22291;52.250;21.228;2022-08-02T09:31:17;100409.07;;;36.18;31.79
36254;BME280;22291;52.250;21.228;2022-08-02T09:33:57;100413.09;;;36.26;31.56
36254;BME280;22291;52.250;21.228;2022-08-02T09:36:26;100413.41;;;36.23;30.86
36254;BME280;22291;52.250;21.228;2022-08-02T09:38:57;100416.79;;;36.13;30.72
36254;BME280;22291;52.250;21.228;2022-08-02T09:41:31;100407.30;;;35.90;29.92
36254;BME280;22291;52.250;21.228;2022-08-02T09:44:00;100419.72;;;35.60;30.85
36254;BME280;22291;52.250;21.228;2022-08-02T09:46:31;100426.96;;;35.51;30.93
36254;BME280;22291;52.250;21.228;2022-08-02T09:51:47;100428.25;;;35.17;30.94
36254;BME280;22291;52.250;21.228;2022-08-02T09:54:22;100420.96;;;35.06;31.00
36254;BME280;22291;52.250;21.228;2022-08-02T09:56:53;100428.28;;;34.79;30.76
36254;BME280;22291;52.250;21.228;2022-08-02T09:59:19;100423.05;;;34.49;31.08
36254;BME280;22291;52.250;21.228;2022-08-02T10:01:47;100418.70;;;34.38;31.98
36254;BME280;22291;52.250;21.228;2022-08-02T10:04:14;100417.39;;;34.58;31.88
36254;BME280;22291;52.250;21.228;2022-08-02T10:06:48;100422.23;;;34.57;31.53
36254;BME280;22291;52.250;21.228;2022-08-02T10:09:15;100415.05;;;34.56;32.52
36254;BME280;22291;52.250;21.228;2022-08-02T10:11:42;100415.13;;;34.85;32.83
36254;BME280;22291;52.250;21.228;2022-08-02T10:14:09;100413.33;;;35.06;31.73
36254;BME280;22291;52.250;21.228;2022-08-02T10:16:39;100418.04;;;35.33;32.12
36254;BME280;22291;52.250;21.228;2022-08-02T10:19:08;100413.64;;;35.57;31.39
36254;BME280;22291;52.250;21.228;2022-08-02T10:21:55;100408.93;;;35.82;31.24
36254;BME280;22291;52.250;21.228;2022-08-02T10:24:27;100411.05;;;35.92;30.72
36254;BME280;22291;52.250;21.228;2022-08-02T10:26:54;100411.89;;;36.18;31.01
36254;BME280;22291;52.250;21.228;2022-08-02T10:29:36;100413.02;;;36.45;30.76
36254;BME280;22291;52.250;21.228;2022-08-02T10:37:13;100413.37;;;36.43;29.81
36254;BME280;22291;52.250;21.228;2022-08-02T10:39:41;100412.99;;;36.01;29.47
36254;BME280;22291;52.250;21.228;2022-08-02T10:42:10;100411.71;;;35.87;30.04
36254;BME280;22291;52.250;21.228;2022-08-02T10:44:37;100413.31;;;35.83;29.70
36254;BME280;22291;52.250;21.228;2022-08-02T10:47:25;100412.48;;;35.68;29.92
36254;BME280;22291;52.250;21.228;2022-08-02T10:49:53;100411.36;;;35.70;30.31
36254;BME280;22291;52.250;21.228;2022-08-02T10:57:36;100403.13;;;36.35;29.37
36254;BME280;22291;52.250;21.228;2022-08-02T11:02:50;100403.56;;;36.53;29.46
36254;BME280;22291;52.250;21.228;2022-08-02T11:05:27;100402.73;;;36.72;29.85
36254;BME280;22291;52.250;21.228;2022-08-02T11:07:55;100403.03;;;36.59;28.96
36254;BME280;22291;52.250;21.228;2022-08-02T11:13:09;100416.64;;;35.53;28.58
36254;BME280;22291;52.250;21.228;2022-08-02T11:21:28;100405.82;;;33.72;30.70
36254;BME280;22291;52.250;21.228;2022-08-02T11:26:48;100400.00;;;34.35;32.10
36254;BME280;22291;52.250;21.228;2022-08-02T11:29:15;100402.59;;;34.95;31.23
36254;BME280;22291;52.250;21.228;2022-08-02T11:31:44;100399.95;;;35.30;31.03
36254;BME280;22291;52.250;21.228;2022-08-02T11:34:11;100399.27;;;35.59;30.78
36254;BME280;22291;52.250;21.228;2022-08-02T11:36:48;100399.87;;;35.98;30.26
36254;BME280;22291;52.250;21.228;2022-08-02T11:39:18;100408.06;;;35.91;29.20
36254;BME280;22291;52.250;21.228;2022-08-02T11:41:57;100407.44;;;35.52;28.98
36254;BME280;22291;52.250;21.228;2022-08-02T11:44:25;100408.41;;;35.16;28.99
36254;BME280;22291;52.250;21.228;2022-08-02T11:46:55;100409.25;;;34.69;29.32
36254;BME280;22291;52.250;21.228;2022-08-02T11:49:23;100411.69;;;34.29;29.77
36254;BME280;22291;52.250;21.228;2022-08-02T11:51:55;100412.18;;;34.00;30.60
36254;BME280;22291;52.250;21.228;2022-08-02T11:54:30;100407.21;;;33.81;31.02
36254;BME280;22291;52.250;21.228;2022-08-02T11:57:18;100408.92;;;33.83;30.96
36254;BME280;22291;52.250;21.228;2022-08-02T11:59:51;100403.14;;;34.10;31.53
36254;BME280;22291;52.250;21.228;2022-08-02T12:02:24;100406.50;;;34.51;31.14
36254;BME280;22291;52.250;21.228;2022-08-02T12:05:03;100408.54;;;34.50;30.94
36254;BME280;22291;52.250;21.228;2022-08-02T12:07:34;100409.86;;;34.26;30.81
36254;BME280;22291;52.250;21.228;2022-08-02T12:10:08;100408.91;;;34.01;30.97
36254;BME280;22291;52.250;21.228;2022-08-02T12:12:45;100410.18;;;33.82;31.55
36254;BME280;22291;52.250;21.228;2022-08-02T12:15:14;100408.30;;;33.97;31.96
36254;BME280;22291;52.250;21.228;2022-08-02T12:17:45;100400.30;;;34.42;32.37
36254;BME280;22291;52.250;21.228;2022-08-02T12:20:36;100396.14;;;34.71;31.64
36254;BME280;22291;52.250;21.228;2022-08-02T12:23:03;100406.16;;;34.58;31.76
36254;BME280;22291;52.250;21.228;2022-08-02T12:25:29;100404.66;;;34.43;31.88
36254;BME280;22291;52.250;21.228;2022-08-02T12:28:14;100401.27;;;34.25;31.16
36254;BME280;22291;52.250;21.228;2022-08-02T12:30:55;100395.98;;;33.99;31.26
36254;BME280;22291;52.250;21.228;2022-08-02T12:33:25;100401.91;;;33.87;32.98
36254;BME280;22291;52.250;21.228;2022-08-02T12:35:53;100398.03;;;33.80;33.38
36254;BME280;22291;52.250;21.228;2022-08-02T12:38:19;100409.09;;;33.89;33.94
36254;BME280;22291;52.250;21.228;2022-08-02T12:40:46;100403.93;;;33.96;33.59
36254;BME280;22291;52.250;21.228;2022-08-02T12:43:19;100404.40;;;33.76;33.43
36254;BME280;22291;52.250;21.228;2022-08-02T12:45:53;100409.20;;;33.62;33.32
36254;BME280;22291;52.250;21.228;2022-08-02T12:48:36;100404.83;;;33.61;33.04
36254;BME280;22291;52.250;21.228;2022-08-02T12:51:25;100408.30;;;33.79;33.57
36254;BME280;22291;52.250;21.228;2022-08-02T12:56:43;100398.31;;;33.92;33.42
36254;BME280;22291;52.250;21.228;2022-08-02T12:59:10;100401.89;;;33.97;32.81
36254;BME280;22291;52.250;21.228;2022-08-02T13:01:36;100405.00;;;33.62;32.96
36254;BME280;22291;52.250;21.228;2022-08-02T13:04:03;100401.48;;;32.75;33.42
36254;BME280;22291;52.250;21.228;2022-08-02T13:06:29;100401.48;;;32.75;33.42
36254;BME280;22291;52.250;21.228;2022-08-02T13:08:56;100404.88;;;32.44;33.40
36254;BME280;22291;52.250;21.228;2022-08-02T13:11:26;100408.72;;;32.10;33.87
36254;BME280;22291;52.250;21.228;2022-08-02T13:13:53;100417.70;;;31.88;33.81
36254;BME280;22291;52.250;21.228;2022-08-02T13:16:20;100402.86;;;31.47;34.80
36254;BME280;22291;52.250;21.228;2022-08-02T13:18:46;100406.66;;;31.23;35.04
36254;BME280;22291;52.250;21.228;2022-08-02T13:21:12;100403.20;;;31.06;35.55
36254;BME280;22291;52.250;21.228;2022-08-02T13:23:38;100407.37;;;31.19;36.13
36254;BME280;22291;52.250;21.228;2022-08-02T13:26:05;100403.09;;;31.23;36.18
36254;BME280;22291;52.250;21.228;2022-08-02T13:28:31;100405.57;;;31.38;36.12
36254;BME280;22291;52.250;21.228;2022-08-02T13:30:57;100400.77;;;31.26;35.75
36254;BME280;22291;52.250;21.228;2022-08-02T13:33:23;100398.39;;;31.20;36.51
36254;BME280;22291;52.250;21.228;2022-08-02T13:35:49;100403.98;;;31.20;36.26
36254;BME280;22291;52.250;21.228;2022-08-02T13:38:16;100401.19;;;31.07;35.72
36254;BME280;22291;52.250;21.228;2022-08-02T13:40:42;100410.54;;;30.96;35.88
36254;BME280;22291;52.250;21.228;2022-08-02T13:43:27;100409.55;;;30.81;36.11
36254;BME280;22291;52.250;21.228;2022-08-02T13:45:54;100411.77;;;30.61;36.21
36254;BME280;22291;52.250;21.228;2022-08-02T13:48:20;100408.38;;;30.40;36.56
36254;BME280;22291;52.250;21.228;2022-08-02T13:50:47;100407.87;;;30.29;37.02
36254;BME280;22291;52.250;21.228;2022-08-02T13:53:13;100406.35;;;30.20;37.28
36254;BME280;22291;52.250;21.228;2022-08-02T13:55:39;100403.42;;;30.31;37.34
36254;BME280;22291;52.250;21.228;2022-08-02T13:58:05;100399.28;;;30.44;37.82
36254;BME280;22291;52.250;21.228;2022-08-02T14:00:32;100403.06;;;30.59;36.80
36254;BME280;22291;52.250;21.228;2022-08-02T14:02:58;100406.40;;;30.66;37.08
36254;BME280;22291;52.250;21.228;2022-08-02T14:05:24;100399.05;;;30.72;37.22
36254;BME280;22291;52.250;21.228;2022-08-02T14:07:52;100404.81;;;30.73;36.63
36254;BME280;22291;52.250;21.228;2022-08-02T14:10:20;100406.84;;;30.65;36.73
36254;BME280;22291;52.250;21.228;2022-08-02T14:12:47;100402.14;;;30.49;36.59
36254;BME280;22291;52.250;21.228;2022-08-02T14:15:13;100401.41;;;30.32;36.66
36254;BME280;22291;52.250;21.228;2022-08-02T14:17:40;100396.07;;;30.16;37.03
36254;BME280;22291;52.250;21.228;2022-08-02T14:20:06;100398.22;;;30.04;37.19
36254;BME280;22291;52.250;21.228;2022-08-02T14:22:33;100400.80;;;29.90;37.26
36254;BME280;22291;52.250;21.228;2022-08-02T14:24:59;100401.42;;;29.82;37.59